Time;durP1;ratioP1;P1;durP2;ratioP2;P2;SDS_P1;SDS_P2;PMS_P1;PMS_P2;Temp;Humidity;BMP_temperature;BMP_pressure;BME280_temperature;BME280_humidity;BME280_pressure;Samples;Min_cycle;Max_cycle;Signal;HPM_P1;HPM_P2
2023/06/23 00:00:25;;;;;;;5.10;4.32;;;;;;;20.32;65.32;99650.41;4984493;28;20058;-80
2023/06/23 00:02:51;;;;;;;4.53;4.13;;;;;;;20.29;65.28;99677.44;4975767;28;20100;-80
2023/06/23 00:05:18;;;;;;;6.15;4.30;;;;;;;20.26;65.15;99683.13;4993561;28;20062;-80
2023/06/23 00:07:46;;;;;;;3.97;3.65;;;;;;;20.23;65.33;99673.59;4976026;28;20058;-81
2023/06/23 00:10:13;;;;;;;4.35;3.72;;;;;;;20.21;65.31;99680.03;4986498;28;20101;-82
2023/06/23 00:12:43;;;;;;;4.65;3.78;;;;;;;20.19;65.37;99685.56;4983731;28;20109;-80
2023/06/23 00:15:12;;;;;;;4.80;4.03;;;;;;;20.15;65.63;99682.34;4961915;28;20074;-81
2023/06/23 00:17:43;;;;;;;7.50;4.03;;;;;;;20.14;65.61;99688.69;4973473;28;20051;-80
2023/06/23 00:22:42;;;;;;;6.10;4.60;;;;;;;20.13;65.73;99695.03;4963376;23;20545;-80
2023/06/23 00:25:11;;;;;;;5.88;5.22;;;;;;;20.13;66.20;99680.81;4992902;28;20086;-78
2023/06/23 00:27:42;;;;;;;5.28;4.53;;;;;;;20.12;66.62;99684.47;4991788;28;20046;-79
2023/06/23 00:30:11;;;;;;;7.80;6.05;;;;;;;20.15;66.39;99685.00;4992146;28;20050;-79
2023/06/23 00:32:39;;;;;;;7.40;6.60;;;;;;;20.16;66.42;99685.88;4973583;28;20058;-79
2023/06/23 00:35:08;;;;;;;7.68;6.25;;;;;;;20.14;67.21;99679.81;4973541;28;20097;-80
2023/06/23 00:37:37;;;;;;;7.07;6.38;;;;;;;20.17;66.87;99687.53;4956183;28;20055;-78
2023/06/23 00:40:07;;;;;;;7.18;6.25;;;;;;;20.18;66.97;99690.06;4973395;28;20463;-79
2023/06/23 00:42:47;;;;;;;7.07;6.38;;;;;;;20.18;67.75;99691.88;4989725;28;20141;-79
2023/06/23 00:45:14;;;;;;;8.13;6.28;;;;;;;20.23;67.12;99696.78;4992786;28;20395;-79
2023/06/23 00:47:42;;;;;;;7.60;6.68;;;;;;;20.24;67.25;99701.97;4992620;28;20085;-79
2023/06/23 00:50:13;;;;;;;7.97;7.18;;;;;;;20.25;67.95;99713.50;4992754;28;20076;-79
2023/06/23 00:52:40;;;;;;;8.75;7.85;;;;;;;20.28;67.24;99713.19;4977490;28;20054;-79
2023/06/23 00:55:07;;;;;;;7.82;7.13;;;;;;;20.30;67.46;99711.22;4972899;28;20541;-79
2023/06/23 00:57:34;;;;;;;8.55;7.65;;;;;;;20.30;67.37;99709.38;4973175;28;20128;-80
2023/06/23 01:00:01;;;;;;;8.55;7.60;;;;;;;20.33;67.62;99702.88;4973145;28;20174;-79
2023/06/23 01:02:28;;;;;;;9.75;7.57;;;;;;;20.35;67.64;99708.09;4983405;28;20096;-80
2023/06/23 01:04:54;;;;;;;8.85;7.03;;;;;;;20.36;67.69;99702.59;4992319;28;20076;-79
2023/06/23 01:07:40;;;;;;;7.40;6.70;;;;;;;20.35;68.36;99700.91;4990971;28;20519;-79
2023/06/23 01:10:15;;;;;;;6.72;5.80;;;;;;;20.39;68.19;99702.28;4991352;28;20491;-78
2023/06/23 01:13:05;;;;;;;6.68;5.82;;;;;;;20.40;68.34;99729.84;4983387;28;20078;-79
2023/06/23 01:15:39;;;;;;;6.65;5.93;;;;;;;20.43;68.18;99718.84;4971737;28;20058;-80
2023/06/23 01:18:19;;;;;;;7.13;5.43;;;;;;;20.43;68.23;99725.06;4972785;28;20051;-80
2023/06/23 01:20:47;;;;;;;6.20;5.60;;;;;;;20.48;67.63;99734.44;4972777;28;20121;-79
2023/06/23 01:24:00;;;;;;;6.50;5.65;;;;;;;20.43;68.15;99727.72;4973835;28;20508;-79
2023/06/23 01:26:55;;;;;;;5.72;5.22;;;;;;;20.44;68.05;99732.06;4972470;28;20055;-80
2023/06/23 01:29:28;;;;;;;6.22;5.63;;;;;;;20.48;67.65;99726.44;4972866;28;20089;-80
2023/06/23 01:32:01;;;;;;;7.03;6.30;;;;;;;20.48;67.69;99729.09;4955360;28;20491;-79
2023/06/23 01:34:37;;;;;;;6.63;6.03;;;;;;;20.47;67.79;99722.91;4974936;28;20047;-79
2023/06/23 01:37:09;;;;;;;9.43;6.68;;;;;;;20.47;67.73;99736.28;4991948;28;20054;-79
2023/06/23 01:39:41;;;;;;;9.52;6.55;;;;;;;20.47;67.75;99746.13;4974649;28;20051;-79
2023/06/23 01:42:12;;;;;;;9.63;8.63;;;;;;;20.48;67.63;99747.81;4991592;28;20097;-79
2023/06/23 01:44:44;;;;;;;12.90;11.60;;;;;;;20.47;67.88;99749.63;4975269;28;20428;-79
2023/06/23 01:47:17;;;;;;;13.52;11.15;;;;;;;20.46;68.05;99758.66;4955043;28;20049;-79
2023/06/23 01:49:45;;;;;;;13.38;11.45;;;;;;;20.48;67.53;99764.69;4972655;28;20042;-79
2023/06/23 01:52:13;;;;;;;9.55;8.55;;;;;;;20.48;67.42;99775.38;4972604;28;20082;-79
2023/06/23 01:54:41;;;;;;;10.55;8.98;;;;;;;20.48;67.62;99774.56;4985454;28;20081;-79
2023/06/23 01:57:12;;;;;;;10.68;9.55;;;;;;;20.46;67.88;99782.72;4991646;28;20093;-79
2023/06/23 01:59:40;;;;;;;9.23;8.23;;;;;;;20.48;67.73;99795.94;4991655;28;20574;-79
2023/06/23 02:02:09;;;;;;;9.30;8.23;;;;;;;20.48;67.74;99796.75;4985077;28;20125;-79
2023/06/23 02:04:36;;;;;;;9.18;8.10;;;;;;;20.49;67.71;99800.28;4972429;28;20137;-79
2023/06/23 02:07:04;;;;;;;9.10;7.90;;;;;;;20.49;67.53;99802.97;4972174;28;20047;-79
2023/06/23 02:09:32;;;;;;;9.93;7.60;;;;;;;20.50;67.75;99807.31;4972357;28;20050;-78
2023/06/23 02:11:59;;;;;;;9.70;8.23;;;;;;;20.50;67.65;99818.88;4974805;28;20105;-79
2023/06/23 02:14:28;;;;;;;8.73;7.57;;;;;;;20.51;67.71;99819.69;4990285;28;20447;-80
2023/06/23 02:16:57;;;;;;;9.30;7.50;;;;;;;20.51;67.69;99828.56;4991296;28;20055;-79
2023/06/23 02:19:26;;;;;;;8.63;7.43;;;;;;;20.51;67.50;99823.22;4990462;28;20057;-79
2023/06/23 02:21:53;;;;;;;8.02;7.20;;;;;;;20.51;67.41;99833.06;4991246;28;20133;-80
2023/06/23 02:24:21;;;;;;;8.43;7.32;;;;;;;20.50;67.45;99836.72;4955348;28;20051;-80
2023/06/23 02:26:48;;;;;;;8.85;7.45;;;;;;;20.50;67.26;99839.41;4971700;28;20081;-80
2023/06/23 02:29:16;;;;;;;9.27;6.88;;;;;;;20.49;67.21;99843.06;4971932;28;20547;-79
2023/06/23 02:31:42;;;;;;;7.88;6.95;;;;;;;20.48;67.12;99847.56;4972089;28;20484;-80
2023/06/23 02:34:09;;;;;;;8.05;6.95;;;;;;;20.46;67.29;99849.56;4984744;28;20063;-80
2023/06/23 02:36:47;;;;;;;8.93;7.28;;;;;;;20.42;67.72;99850.84;4991190;28;20058;-79
2023/06/23 02:39:20;;;;;;;7.03;6.30;;;;;;;20.43;67.30;99858.72;4991329;28;20050;-79
2023/06/23 02:41:51;;;;;;;9.88;6.57;;;;;;;20.44;67.17;99865.75;4974212;28;20050;-79
2023/06/23 02:44:24;;;;;;;8.27;6.57;;;;;;;20.41;67.50;99868.72;4978845;28;20146;-80
2023/06/23 02:46:56;;;;;;;7.10;6.40;;;;;;;20.40;67.59;99876.88;4971773;28;20051;-80
2023/06/23 02:49:27;;;;;;;10.85;7.03;;;;;;;20.40;67.39;99888.44;4970734;28;20142;-79
2023/06/23 02:51:58;;;;;;;7.50;6.30;;;;;;;20.39;67.38;99891.25;4973018;28;20062;-80
2023/06/23 02:54:26;;;;;;;8.20;5.75;;;;;;;20.39;67.15;99899.25;4985809;28;20042;-80
2023/06/23 02:56:58;;;;;;;7.50;6.63;;;;;;;20.34;67.39;99889.03;4979460;28;20051;-79
2023/06/23 02:59:27;;;;;;;6.72;6.00;;;;;;;20.35;66.94;99901.41;4993709;28;20058;-80
2023/06/23 03:01:57;;;;;;;8.88;7.07;;;;;;;20.33;67.22;99894.53;4994658;28;20046;-80
2023/06/23 03:04:24;;;;;;;7.35;6.25;;;;;;;20.32;66.91;99888.31;4968846;28;20050;-79
2023/06/23 03:06:51;;;;;;;7.82;6.50;;;;;;;20.31;67.03;99900.00;4973862;28;20134;-80
2023/06/23 03:09:18;;;;;;;9.27;6.35;;;;;;;20.29;67.09;99891.28;4958054;28;20125;-79
2023/06/23 03:11:44;;;;;;;7.35;6.57;;;;;;;20.29;67.08;99894.81;4975102;28;20050;-80
2023/06/23 03:14:11;;;;;;;10.20;7.55;;;;;;;20.29;67.18;99894.81;4977566;28;20058;-80
2023/06/23 03:16:46;;;;;;;9.23;7.65;;;;;;;20.29;67.20;99900.16;4976716;28;20498;-80
2023/06/23 03:19:36;;;;;;;10.05;7.60;;;;;;;20.24;67.58;99912.28;4994320;28;20056;-79
2023/06/23 03:22:23;;;;;;;8.38;6.75;;;;;;;20.28;66.99;99902.97;4994202;28;20085;-79
2023/06/23 03:24:53;;;;;;;7.22;6.43;;;;;;;20.27;67.00;99918.19;4988483;28;20046;-80
2023/06/23 03:27:22;;;;;;;6.35;5.63;;;;;;;20.26;66.76;99921.00;4974479;28;20047;-80
2023/06/23 03:30:28;;;;;;;7.18;5.25;;;;;;;20.18;66.64;99927.91;4974683;28;20514;-78
2023/06/23 03:33:00;;;;;;;4.75;4.20;;;;;;;20.21;66.05;99924.09;4914695;29;20048;-79
2023/06/23 03:35:32;;;;;;;5.10;3.90;;;;;;;20.17;65.86;99922.72;4966317;28;20055;-79
2023/06/23 03:38:03;;;;;;;5.22;3.95;;;;;;;20.13;65.44;99932.84;4957221;28;20094;-79
2023/06/23 03:40:41;;;;;;;5.25;3.50;;;;;;;20.08;65.54;99934.28;4958811;28;20082;-80
2023/06/23 03:43:14;;;;;;;4.82;3.50;;;;;;;20.04;65.21;99949.78;4974328;28;20142;-79
2023/06/23 03:45:44;;;;;;;4.47;3.88;;;;;;;20.00;64.83;99951.03;4973123;28;20606;-79
2023/06/23 03:48:13;;;;;;;5.43;3.90;;;;;;;19.96;64.95;99949.63;4972940;28;20055;-80
2023/06/23 03:50:42;;;;;;;5.13;3.13;;;;;;;19.90;64.76;99970.59;4957343;28;20109;-80
2023/06/23 03:53:12;;;;;;;4.65;3.60;;;;;;;19.84;64.86;99976.47;4973108;28;20110;-79
2023/06/23 03:55:41;;;;;;;4.53;3.70;;;;;;;19.80;64.68;99975.06;4974219;28;20043;-79
2023/06/23 03:58:09;;;;;;;4.85;3.65;;;;;;;19.74;64.66;99981.00;4974824;28;20062;-79
2023/06/23 04:00:39;;;;;;;7.28;3.40;;;;;;;19.71;64.73;99983.94;4974118;28;20051;-79
2023/06/23 04:03:07;;;;;;;5.07;3.47;;;;;;;19.66;64.84;99989.69;4956482;28;20059;-78
2023/06/23 04:05:37;;;;;;;3.88;3.40;;;;;;;19.62;64.61;99991.81;4956893;28;20138;-79
2023/06/23 04:08:05;;;;;;;4.28;3.40;;;;;;;19.59;65.15;99994.75;4974035;28;20100;-80
2023/06/23 04:10:32;;;;;;;4.93;3.60;;;;;;;19.57;65.08;100001.22;4973980;28;20083;-79
2023/06/23 04:13:01;;;;;;;3.83;3.40;;;;;;;19.53;64.93;100000.66;4973876;28;20129;-79
2023/06/23 04:15:29;;;;;;;4.10;3.38;;;;;;;19.51;64.83;100002.66;4974724;28;20053;-79
2023/06/23 04:17:58;;;;;;;4.68;3.42;;;;;;;19.47;64.78;99996.72;4957871;28;20051;-80
2023/06/23 04:20:25;;;;;;;5.15;3.50;;;;;;;19.46;65.04;100008.41;4973700;28;20050;-80
2023/06/23 04:22:53;;;;;;;6.93;3.72;;;;;;;19.43;65.17;100008.66;4973485;28;20134;-79
2023/06/23 04:25:21;;;;;;;5.60;3.60;;;;;;;19.39;65.07;100013.44;4973527;28;20467;-79
2023/06/23 04:27:55;;;;;;;6.90;3.70;;;;;;;19.36;65.31;100007.56;4973428;28;20066;-79
2023/06/23 04:30:24;;;;;;;4.45;3.53;;;;;;;19.35;65.30;100012.03;4956570;28;20117;-78
2023/06/23 04:32:50;;;;;;;6.22;3.40;;;;;;;19.35;65.27;100014.72;4974409;28;20050;-80
2023/06/23 04:35:17;;;;;;;4.50;3.50;;;;;;;19.34;65.62;100006.84;4984321;28;20168;-79
2023/06/23 04:37:52;;;;;;;5.47;3.60;;;;;;;19.28;65.66;100018.91;4990503;28;20090;-79
2023/06/23 04:40:40;;;;;;;5.78;3.83;;;;;;;19.25;65.72;100035.22;4987981;28;20121;-79
2023/06/23 04:43:12;;;;;;;10.63;3.78;;;;;;;19.26;65.79;100042.22;4992933;28;20050;-79
2023/06/23 04:45:59;;;;;;;;;;;;;;;19.25;65.80;100041.38;4975964;28;20054;-80
2023/06/23 04:48:30;;;;;;;6.25;3.47;;;;;;;19.29;65.57;100052.63;4992343;28;19925;-79
2023/06/23 04:50:59;;;;;;;5.05;4.10;;;;;;;19.27;65.75;100059.94;4979332;28;20486;-79
2023/06/23 04:53:38;;;;;;;5.20;3.95;;;;;;;19.24;66.21;100062.84;4989169;28;20074;-80
2023/06/23 04:56:08;;;;;;;4.60;3.88;;;;;;;19.23;66.21;100056.69;4973192;28;20086;-79
2023/06/23 04:58:40;;;;;;;4.97;3.63;;;;;;;19.22;66.66;100070.16;4971648;28;20051;-79
2023/06/23 05:01:11;;;;;;;5.70;4.10;;;;;;;19.23;66.54;100083.38;4985975;28;20053;-79
2023/06/23 05:03:39;;;;;;;6.82;4.00;;;;;;;19.26;66.40;100092.94;4992507;28;20396;-79
2023/06/23 05:06:08;;;;;;;5.43;3.70;;;;;;;19.25;66.43;100076.06;4975135;28;20057;-79
2023/06/23 05:08:36;;;;;;;8.45;3.80;;;;;;;19.26;66.44;100091.09;4991596;28;20047;-78
2023/06/23 05:11:06;;;;;;;4.35;3.75;;;;;;;19.28;66.43;100093.63;4992290;28;20047;-79
2023/06/23 05:13:35;;;;;;;5.07;4.00;;;;;;;19.30;66.86;100097.03;4975027;28;20089;-79
2023/06/23 05:16:03;;;;;;;4.93;4.07;;;;;;;19.31;66.93;100101.38;4983056;28;20055;-80
2023/06/23 05:18:33;;;;;;;6.20;4.85;;;;;;;19.32;66.64;100108.41;4972808;28;20464;-79
2023/06/23 05:21:01;;;;;;;6.45;4.68;;;;;;;19.35;66.93;100110.78;4972838;28;20395;-79
2023/06/23 05:23:28;;;;;;;6.50;4.90;;;;;;;19.36;67.06;100123.16;4972631;28;20058;-79
2023/06/23 05:26:06;;;;;;;7.75;5.32;;;;;;;19.37;67.21;100119.50;4972657;28;20050;-80
2023/06/23 05:28:37;;;;;;;8.48;5.60;;;;;;;19.39;67.18;100125.56;4971279;28;20498;-80
2023/06/23 05:31:06;;;;;;;6.07;5.43;;;;;;;19.44;67.12;100132.31;4972776;28;20219;-79
2023/06/23 05:33:37;;;;;;;8.52;5.63;;;;;;;19.45;67.63;100136.66;4981160;28;20470;-79
2023/06/23 05:36:07;;;;;;;7.20;5.80;;;;;;;19.49;67.75;100146.09;4990594;28;20057;-81
2023/06/23 05:38:36;;;;;;;6.88;5.45;;;;;;;19.52;67.43;100148.50;4991398;28;20062;-80
2023/06/23 05:41:03;;;;;;;8.30;6.05;;;;;;;19.55;67.67;100153.56;4991770;28;20058;-79
2023/06/23 05:43:30;;;;;;;9.45;6.15;;;;;;;19.58;67.63;100157.81;4991922;28;20384;-79
2023/06/23 05:45:57;;;;;;;8.35;5.80;;;;;;;19.59;67.57;100162.16;4991594;28;20053;-79
2023/06/23 05:49:07;;;;;;;9.63;5.80;;;;;;;19.57;68.20;100162.28;4974475;28;20049;-80
2023/06/23 05:51:35;;;;;;;9.07;5.65;;;;;;;19.65;67.58;100162.44;4977513;28;20059;-79
2023/06/23 05:54:11;;;;;;;9.70;6.22;;;;;;;19.66;68.00;100161.47;4986797;28;20055;-79
2023/06/23 05:57:00;;;;;;;8.77;5.85;;;;;;;19.65;68.56;100167.78;4972088;28;20114;-79
2023/06/23 05:59:36;;;;;;;7.63;5.32;;;;;;;19.71;67.94;100165.53;4972024;28;20050;-79
2023/06/23 06:02:05;;;;;;;6.45;5.10;;;;;;;19.75;67.88;100167.81;4972265;28;20042;-79
2023/06/23 06:04:37;;;;;;;7.68;5.18;;;;;;;19.78;67.75;100170.19;4970230;28;20057;-79
2023/06/23 06:07:06;;;;;;;7.30;5.45;;;;;;;19.82;67.47;100178.78;4971437;28;20137;-79
2023/06/23 06:09:41;;;;;;;7.65;5.57;;;;;;;19.85;67.56;100169.66;4971505;28;20059;-79
2023/06/23 06:12:08;;;;;;;7.47;5.63;;;;;;;19.88;67.58;100167.53;4954537;28;20106;-79
2023/06/23 06:14:36;;;;;;;6.25;5.18;;;;;;;19.92;67.58;100181.47;4955716;28;20102;-79
2023/06/23 06:17:04;;;;;;;9.45;5.50;;;;;;;19.93;67.22;100186.66;4970120;28;20082;-79
2023/06/23 06:19:31;;;;;;;6.00;5.40;;;;;;;19.95;67.34;100186.53;4955136;28;20050;-79
2023/06/23 06:24:34;;;;;;;7.63;5.47;;;;;;;20.00;67.35;100192.34;4989978;28;20438;-79
2023/06/23 06:27:02;;;;;;;8.32;5.18;;;;;;;20.02;67.36;100193.06;4992294;28;20059;-81
2023/06/23 06:29:32;;;;;;;5.78;4.78;;;;;;;20.06;67.27;100196.28;4995230;28;20494;-79
2023/06/23 06:32:00;;;;;;;7.03;5.30;;;;;;;20.10;67.46;100204.88;4993253;28;20129;-80
2023/06/23 06:34:30;;;;;;;7.55;5.60;;;;;;;20.12;67.47;100205.59;4995224;28;20084;-79
2023/06/23 06:37:00;;;;;;;6.75;5.15;;;;;;;20.15;67.11;100214.16;4977590;28;20058;-80
2023/06/23 06:39:29;;;;;;;7.65;4.90;;;;;;;20.17;67.59;100222.91;4977665;28;20059;-81
2023/06/23 06:41:57;;;;;;;7.88;5.72;;;;;;;20.21;67.41;100227.94;4995238;28;20050;-80
2023/06/23 06:44:24;;;;;;;9.10;5.50;;;;;;;20.22;67.66;100230.47;4993951;28;20133;-80
2023/06/23 06:46:52;;;;;;;10.75;5.60;;;;;;;20.25;67.57;100240.06;4994501;28;20120;-80
2023/06/23 06:49:23;;;;;;;7.53;5.47;;;;;;;20.27;67.72;100240.78;4984899;28;20059;-81
2023/06/23 06:51:51;;;;;;;7.97;5.10;;;;;;;20.30;67.39;100243.19;4974085;28;20051;-80
2023/06/23 06:54:17;;;;;;;9.52;5.63;;;;;;;20.31;67.37;100242.19;4975206;28;20063;-81
2023/06/23 06:56:46;;;;;;;7.85;5.43;;;;;;;20.34;67.39;100243.72;4974871;28;20656;-79
2023/06/23 06:59:13;;;;;;;7.32;5.47;;;;;;;20.35;67.44;100256.97;4975419;28;20102;-81
2023/06/23 07:01:40;;;;;;;7.85;5.40;;;;;;;20.38;67.38;100251.34;4992821;28;20072;-80
2023/06/23 07:04:07;;;;;;;6.78;5.30;;;;;;;20.40;67.28;100256.53;4994538;28;20695;-80
2023/06/23 07:06:36;;;;;;;10.93;5.65;;;;;;;20.43;67.20;100275.81;4994554;28;20056;-80
2023/06/23 07:09:04;;;;;;;9.02;5.80;;;;;;;20.44;67.45;100277.50;4994641;28;20061;-78
2023/06/23 07:11:31;;;;;;;7.72;5.95;;;;;;;20.46;67.10;100281.88;4994890;28;20060;-78
2023/06/23 07:13:59;;;;;;;7.63;5.82;;;;;;;20.45;67.20;100286.41;4994439;28;20065;-78
2023/06/23 07:16:30;;;;;;;7.82;5.85;;;;;;;20.47;67.36;100292.44;4974754;28;20057;-78
2023/06/23 07:18:57;;;;;;;9.30;5.85;;;;;;;20.48;67.46;100294.13;4977502;28;20143;-80
2023/06/23 07:21:24;;;;;;;9.77;5.90;;;;;;;20.50;67.75;100300.19;4983184;28;20049;-81
2023/06/23 07:23:50;;;;;;;8.95;6.03;;;;;;;20.53;67.63;100296.38;4994331;28;20105;-79
2023/06/23 07:26:17;;;;;;;7.53;5.65;;;;;;;20.56;67.62;100301.47;4993896;28;20693;-78
2023/06/23 07:28:43;;;;;;;10.23;6.00;;;;;;;20.59;67.86;100301.16;4994021;28;20057;-79
2023/06/23 07:31:11;;;;;;;10.40;6.47;;;;;;;20.64;68.15;100300.75;4994155;28;20054;-79
2023/06/23 07:33:40;;;;;;;10.98;6.47;;;;;;;20.68;68.06;100311.00;4992307;28;20130;-79
2023/06/23 07:36:07;;;;;;;8.45;6.22;;;;;;;20.73;67.99;100310.59;4992764;28;20062;-79
2023/06/23 07:38:34;;;;;;;9.60;7.00;;;;;;;20.80;68.07;100318.91;4993125;28;20054;-78
2023/06/23 07:41:00;;;;;;;8.48;6.18;;;;;;;20.85;68.13;100323.84;4993772;28;20066;-79
2023/06/23 07:43:27;;;;;;;8.57;6.22;;;;;;;20.89;68.21;100322.63;4975164;28;20054;-78
2023/06/23 07:45:54;;;;;;;9.57;6.85;;;;;;;20.95;68.38;100327.41;4975605;28;20051;-79
2023/06/23 07:48:20;;;;;;;11.20;6.93;;;;;;;21.02;68.43;100323.19;4973983;28;20050;-79
2023/06/23 07:50:47;;;;;;;10.00;6.47;;;;;;;21.09;68.30;100329.63;4974789;28;20102;-78
2023/06/23 07:53:14;;;;;;;11.07;7.68;;;;;;;21.17;68.54;100336.13;4973664;28;20081;-80
2023/06/23 07:55:41;;;;;;;11.60;7.75;;;;;;;21.25;68.13;100348.78;4956661;28;20050;-80
2023/06/23 07:58:08;;;;;;;9.82;8.15;;;;;;;21.29;68.12;100345.69;4973907;28;20065;-79
2023/06/23 08:00:34;;;;;;;12.30;7.70;;;;;;;21.35;67.71;100345.09;4973893;28;20051;-80
2023/06/23 08:03:01;;;;;;;12.00;7.70;;;;;;;21.41;68.01;100351.72;4973862;28;20411;-79
2023/06/23 08:05:28;;;;;;;10.30;7.75;;;;;;;21.50;68.07;100351.84;4973989;28;20150;-80
2023/06/23 08:07:55;;;;;;;9.43;7.35;;;;;;;21.55;68.23;100349.56;4960567;28;20097;-80
2023/06/23 08:10:22;;;;;;;10.50;7.03;;;;;;;21.63;68.24;100357.72;4993000;28;20778;-80
2023/06/23 08:12:48;;;;;;;9.95;7.60;;;;;;;21.69;68.22;100353.63;4993404;28;20056;-80
2023/06/23 08:15:15;;;;;;;11.55;7.45;;;;;;;21.78;67.87;100359.97;4992974;28;20073;-79
2023/06/23 08:17:42;;;;;;;10.45;7.45;;;;;;;21.85;67.68;100361.06;4992874;28;20148;-80
2023/06/23 08:20:09;;;;;;;8.23;6.63;;;;;;;21.93;68.15;100363.88;4990184;28;20054;-79
2023/06/23 08:22:39;;;;;;;7.97;6.65;;;;;;;22.03;68.14;100365.66;4971941;28;20051;-80
2023/06/23 08:25:07;;;;;;;10.70;6.32;;;;;;;22.14;67.91;100370.84;4972495;28;20051;-79
2023/06/23 08:27:34;;;;;;;8.30;6.22;;;;;;;22.24;67.49;100374.31;4973660;28;20050;-80
2023/06/23 08:30:01;;;;;;;7.35;5.82;;;;;;;22.37;67.35;100391.88;4973582;28;20058;-79
2023/06/23 08:32:27;;;;;;;8.60;6.05;;;;;;;22.48;67.19;100385.47;4973306;28;20495;-78
2023/06/23 08:34:54;;;;;;;6.10;5.50;;;;;;;22.58;67.02;100378.22;4973506;28;20145;-77
2023/06/23 08:37:21;;;;;;;8.88;6.10;;;;;;;22.71;67.18;100377.03;4987255;28;20058;-79
2023/06/23 08:39:47;;;;;;;6.55;5.25;;;;;;;22.83;66.50;100389.22;4973602;28;20059;-78
2023/06/23 08:42:14;;;;;;;7.35;5.50;;;;;;;22.92;66.05;100390.16;4973194;28;20059;-79
2023/06/23 08:44:45;;;;;;;8.15;5.95;;;;;;;23.00;65.19;100392.06;4973076;28;20467;-79
2023/06/23 08:47:13;;;;;;;7.55;6.03;;;;;;;23.04;64.49;100394.31;4973101;28;20078;-79
2023/06/23 08:49:44;;;;;;;8.88;5.95;;;;;;;23.08;63.97;100400.22;4973179;28;20062;-80
2023/06/23 08:52:11;;;;;;;7.00;5.95;;;;;;;23.13;64.38;100410.47;4973099;28;20058;-80
2023/06/23 08:54:38;;;;;;;8.80;6.35;;;;;;;23.15;64.14;100411.19;4973856;28;20114;-79
2023/06/23 08:57:06;;;;;;;6.20;5.38;;;;;;;23.20;64.29;100413.38;4972731;28;20114;-79
2023/06/23 08:59:33;;;;;;;7.20;5.50;;;;;;;23.24;64.89;100418.31;4973421;28;20059;-78
2023/06/23 09:02:00;;;;;;;7.38;5.88;;;;;;;23.31;64.41;100410.47;4992489;28;20514;-80
2023/06/23 09:04:26;;;;;;;9.70;6.40;;;;;;;23.38;65.18;100403.50;4992002;28;20518;-80
2023/06/23 09:06:53;;;;;;;8.43;5.90;;;;;;;23.47;64.53;100408.97;4992068;28;20108;-80
2023/06/23 09:09:20;;;;;;;7.55;6.15;;;;;;;23.56;64.08;100413.38;4992147;28;20062;-80
2023/06/23 09:11:47;;;;;;;9.88;5.70;;;;;;;23.66;63.99;100424.03;4992142;28;20407;-79
2023/06/23 09:14:15;;;;;;;7.30;5.65;;;;;;;23.77;64.03;100420.25;4977160;28;20091;-79
2023/06/23 09:16:42;;;;;;;7.53;5.40;;;;;;;23.88;63.04;100427.22;4972314;28;20061;-80
2023/06/23 09:19:09;;;;;;;5.75;4.75;;;;;;;23.97;62.97;100426.25;4973036;28;20067;-78
2023/06/23 09:21:37;;;;;;;8.35;5.53;;;;;;;24.05;63.17;100429.00;4955246;28;20133;-79
2023/06/23 09:24:05;;;;;;;7.38;5.05;;;;;;;24.14;62.17;100429.06;4972854;28;20554;-79
2023/06/23 09:26:52;;;;;;;8.88;4.80;;;;;;;24.15;61.61;100428.06;4972355;28;20066;-77
2023/06/23 09:29:20;;;;;;;7.07;4.68;;;;;;;24.26;61.54;100435.81;4973855;28;20063;-79
2023/06/23 09:31:49;;;;;;;6.00;4.68;;;;;;;24.31;62.17;100432.66;4954041;28;20090;-77
2023/06/23 09:34:31;;;;;;;6.38;4.97;;;;;;;24.33;62.83;100439.56;4970430;28;20062;-77
2023/06/23 09:37:11;;;;;;;5.35;4.20;;;;;;;24.44;62.72;100437.56;4971010;28;20054;-78
2023/06/23 09:39:41;;;;;;;7.43;4.63;;;;;;;24.56;62.81;100433.59;4971137;28;20090;-79
2023/06/23 09:42:12;;;;;;;5.20;4.18;;;;;;;24.67;61.03;100443.22;4971140;28;20062;-80
2023/06/23 09:44:40;;;;;;;5.68;4.43;;;;;;;24.76;61.51;100446.78;4970903;28;20059;-80
2023/06/23 09:47:07;;;;;;;7.25;4.50;;;;;;;24.87;61.57;100447.50;4968950;28;20054;-80
2023/06/23 09:49:41;;;;;;;5.47;3.60;;;;;;;24.93;57.77;100446.88;4991785;28;20062;-79
2023/06/23 09:52:11;;;;;;;5.30;3.75;;;;;;;25.05;60.18;100448.25;4991916;28;20061;-77
2023/06/23 09:54:39;;;;;;;4.78;3.90;;;;;;;25.18;60.08;100444.19;4991587;28;20128;-79
2023/06/23 09:57:13;;;;;;;6.93;4.00;;;;;;;25.29;59.84;100443.00;4991543;28;20050;-79
2023/06/23 09:59:42;;;;;;;7.75;4.20;;;;;;;25.43;59.54;100442.38;4974252;28;20596;-78
2023/06/23 10:02:19;;;;;;;6.90;4.32;;;;;;;25.56;58.78;100441.88;4993362;28;20497;-80
2023/06/23 10:04:48;;;;;;;5.03;4.00;;;;;;;25.66;58.62;100446.22;4990499;28;20055;-80
2023/06/23 10:07:23;;;;;;;5.65;4.45;;;;;;;25.72;57.95;100456.34;4976482;28;20479;-80
2023/06/23 10:09:54;;;;;;;4.15;3.38;;;;;;;25.82;58.12;100450.78;4975965;28;20077;-80
2023/06/23 10:12:39;;;;;;;6.47;3.80;;;;;;;25.91;58.25;100455.16;4976155;28;20109;-79
2023/06/23 10:15:07;;;;;;;4.93;3.78;;;;;;;25.95;57.33;100451.09;4976027;28;20077;-78
2023/06/23 10:17:35;;;;;;;4.70;4.20;;;;;;;25.98;57.10;100460.69;4976072;28;20521;-80
2023/06/23 10:20:04;;;;;;;6.78;3.83;;;;;;;26.00;56.54;100453.25;4976065;28;20059;-79
2023/06/23 10:22:31;;;;;;;5.95;3.75;;;;;;;26.00;56.64;100453.25;4976992;28;20059;-78
2023/06/23 10:25:00;;;;;;;5.95;4.38;;;;;;;25.99;56.55;100455.13;4975953;28;20054;-79
2023/06/23 10:27:29;;;;;;;4.75;4.20;;;;;;;26.01;56.32;100460.34;4975580;28;20523;-79
2023/06/23 10:30:00;;;;;;;7.72;4.18;;;;;;;26.03;56.19;100458.31;4975892;28;20133;-79
2023/06/23 10:32:33;;;;;;;5.25;4.10;;;;;;;26.03;56.24;100461.03;4976009;28;20059;-79
2023/06/23 10:35:06;;;;;;;5.20;4.43;;;;;;;26.06;56.06;100455.28;4986464;28;20061;-79
2023/06/23 10:37:33;;;;;;;11.43;4.15;;;;;;;26.13;55.97;100458.94;4994312;28;20050;-79
2023/06/23 10:40:15;;;;;;;4.53;3.78;;;;;;;26.18;56.38;100463.84;4978219;28;20058;-79
2023/06/23 10:42:45;;;;;;;4.38;3.83;;;;;;;26.26;56.54;100468.41;4975550;28;20487;-80
2023/06/23 10:45:12;;;;;;;6.10;4.13;;;;;;;26.40;56.51;100470.34;4958714;28;20046;-79
2023/06/23 10:47:39;;;;;;;6.20;4.43;;;;;;;26.60;56.94;100469.97;4974549;28;20063;-79
2023/06/23 10:50:08;;;;;;;4.95;4.43;;;;;;;26.91;57.03;100466.41;4975274;28;20055;-79
2023/06/23 10:52:35;;;;;;;4.90;4.03;;;;;;;27.32;56.62;100467.16;4975572;28;20059;-80
2023/06/23 10:55:34;;;;;;;7.40;4.20;;;;;;;27.79;56.28;100467.16;4975152;28;20467;-79
2023/06/23 10:58:13;;;;;;;5.22;3.88;;;;;;;28.38;54.52;100461.97;4975111;28;20093;-79
2023/06/23 11:00:44;;;;;;;6.55;4.50;;;;;;;28.90;52.55;100460.13;4985547;28;20137;-79
2023/06/23 11:03:26;;;;;;;3.97;3.58;;;;;;;29.35;52.69;100469.94;4994885;28;20178;-80
2023/06/23 11:05:55;;;;;;;7.15;3.60;;;;;;;29.82;52.99;100469.53;4994452;28;20066;-77
2023/06/23 11:08:48;;;;;;;6.30;3.35;;;;;;;30.23;50.98;100460.59;4994432;28;20058;-78
2023/06/23 11:11:15;;;;;;;5.40;3.30;;;;;;;30.67;49.18;100460.38;4993316;28;20085;-77
2023/06/23 11:13:46;;;;;;;5.07;3.28;;;;;;;31.03;48.86;100463.84;4992066;28;20050;-77
2023/06/23 11:16:34;;;;;;;3.47;2.90;;;;;;;31.38;48.78;100460.97;4982830;28;20404;-78
2023/06/23 11:19:02;;;;;;;2.95;2.67;;;;;;;31.77;48.03;100458.44;4957986;28;20054;-77
2023/06/23 11:21:38;;;;;;;4.07;2.60;;;;;;;32.08;46.41;100462.41;4975203;28;20071;-78
2023/06/23 11:24:11;;;;;;;4.38;3.00;;;;;;;32.43;45.52;100463.09;4974302;28;20055;-77
2023/06/23 11:27:02;;;;;;;4.72;3.20;;;;;;;32.67;45.97;100464.31;4974375;28;20054;-78
2023/06/23 11:29:31;;;;;;;5.35;2.90;;;;;;;32.96;43.97;100463.94;4967708;28;20073;-77
2023/06/23 11:32:06;;;;;;;2.85;2.13;;;;;;;33.10;43.05;100454.63;4974680;28;20054;-78
2023/06/23 11:34:52;;;;;;;5.00;3.15;;;;;;;33.22;42.86;100464.81;4969497;28;20051;-78
2023/06/23 11:37:21;;;;;;;3.35;2.92;;;;;;;33.34;41.40;100456.75;4982759;28;20054;-77
2023/06/23 11:39:52;;;;;;;3.50;2.90;;;;;;;33.36;41.39;100466.38;4994188;28;20051;-78
2023/06/23 11:42:20;;;;;;;3.45;2.88;;;;;;;33.40;41.34;100461.31;4994102;28;20059;-79
2023/06/23 11:44:48;;;;;;;3.78;3.30;;;;;;;33.40;40.17;100464.03;4993803;28;20469;-77
2023/06/23 11:47:16;;;;;;;7.15;3.35;;;;;;;33.28;40.09;100470.22;4993599;28;20086;-78